Time;durP1;ratioP1;P1;durP2;ratioP2;P2;SDS_P1;SDS_P2;PMS_P1;PMS_P2;Temp;Humidity;BMP_temperature;BMP_pressure;BME280_temperature;BME280_humidity;BME280_pressure;Samples;Min_cycle;Max_cycle;Signal;HPM_P1;HPM_P2
2023/06/11 00:00:24;;;;;;;;;6.25;5.00;;;;;;;;5036813;28;45253;-81
2023/06/11 00:02:54;;;;;;;;;6.00;5.50;;;;;;;;5036573;28;47215;-81
2023/06/11 00:05:23;;;;;;;;;5.00;4.00;;;;;;;;5036566;28;45329;-81
2023/06/11 00:07:48;;;;;;;;;3.25;3.00;;;;;;;;5036706;28;45243;-81
2023/06/11 00:10:14;;;;;;;;;5.00;4.00;;;;;;;;5036551;28;45345;-81
2023/06/11 00:12:39;;;;;;;;;6.00;3.75;;;;;;;;5035876;28;45494;-81
2023/06/11 00:15:05;;;;;;;;;6.00;5.67;;;;;;;;5036668;28;45325;-80
2023/06/11 00:17:32;;;;;;;;;8.00;6.00;;;;;;;;5036643;28;45374;-80
2023/06/11 00:19:58;;;;;;;;;2.00;0.00;;;;;;;;5036396;28;45315;-81
2023/06/11 00:22:26;;;;;;;;;5.00;5.00;;;;;;;;5036284;28;47122;-81
2023/06/11 00:24:52;;;;;;;;;4.25;4.00;;;;;;;;5036244;28;45305;-80
2023/06/11 00:27:17;;;;;;;;;5.00;3.67;;;;;;;;5036197;28;45293;-80
2023/06/11 00:29:42;;;;;;;;;5.00;3.00;;;;;;;;5036267;28;45485;-81
2023/06/11 00:32:07;;;;;;;;;2.33;1.67;;;;;;;;5036213;28;45372;-81
2023/06/11 00:34:33;;;;;;;;;3.25;2.75;;;;;;;;5036314;28;45361;-81
2023/06/11 00:36:59;;;;;;;;;3.00;2.00;;;;;;;;5018468;28;45351;-81
2023/06/11 00:39:24;;;;;;;;;5.75;3.00;;;;;;;;5036182;28;45760;-81
2023/06/11 00:41:51;;;;;;;;;7.33;3.00;;;;;;;;5035560;28;46512;-81
2023/06/11 00:44:21;;;;;;;;;6.75;3.25;;;;;;;;5035978;28;45432;-81
2023/06/11 00:46:47;;;;;;;;;3.75;1.50;;;;;;;;5036034;28;45351;-81
2023/06/11 00:49:13;;;;;;;;;2.00;2.00;;;;;;;;5018126;28;45505;-81
2023/06/11 00:51:41;;;;;;;;;4.00;3.00;;;;;;;;5035804;28;45343;-81
2023/06/11 00:54:07;;;;;;;;;6.50;2.50;;;;;;;;5035902;28;45825;-81
2023/06/11 00:56:33;;;;;;;;;2.00;2.00;;;;;;;;5035541;28;45415;-81
2023/06/11 00:58:59;;;;;;;;;7.50;4.00;;;;;;;;5035780;28;45528;-81
2023/06/11 01:01:31;;;;;;;;;3.00;2.25;;;;;;;;5033695;28;46731;-82
2023/06/11 01:04:00;;;;;;;;;4.00;2.00;;;;;;;;5035060;28;45462;-81
2023/06/11 01:06:28;;;;;;;;;3.00;2.00;;;;;;;;5035355;28;45300;-81
2023/06/11 01:08:57;;;;;;;;;7.50;4.00;;;;;;;;5035616;28;45321;-81
2023/06/11 01:11:22;;;;;;;;;4.00;2.50;;;;;;;;5023624;28;47185;-80
2023/06/11 01:13:48;;;;;;;;;4.00;1.75;;;;;;;;5026693;28;45404;-81
2023/06/11 01:16:22;;;;;;;;;2.00;2.00;;;;;;;;5025734;28;45378;-81
2023/06/11 01:18:58;;;;;;;;;4.00;2.00;;;;;;;;5015730;28;45540;-80
2023/06/11 01:21:29;;;;;;;;;3.00;2.00;;;;;;;;5016496;28;46387;-81
2023/06/11 01:24:00;;;;;;;;;3.25;2.00;;;;;;;;5015475;28;45301;-81
2023/06/11 01:26:42;;;;;;;;;2.50;1.50;;;;;;;;5025857;28;45394;-81
2023/06/11 01:29:08;;;;;;;;;2.00;2.00;;;;;;;;5023277;28;45624;-81
2023/06/11 01:31:37;;;;;;;;;3.25;2.00;;;;;;;;5022229;28;47042;-82
2023/06/11 01:34:03;;;;;;;;;7.50;2.00;;;;;;;;5015352;28;45314;-81
2023/06/11 01:36:29;;;;;;;;;2.00;1.25;;;;;;;;5015688;28;45468;-81
2023/06/11 01:38:58;;;;;;;;;4.75;2.50;;;;;;;;5015018;28;45484;-81
2023/06/11 01:41:25;;;;;;;;;4.25;1.25;;;;;;;;5019357;28;46543;-80
2023/06/11 01:43:50;;;;;;;;;5.25;2.00;;;;;;;;5035220;28;45293;-80
2023/06/11 01:46:15;;;;;;;;;4.67;3.00;;;;;;;;5045274;28;45468;-79
2023/06/11 01:48:40;;;;;;;;;0.00;0.00;;;;;;;;5055424;28;45451;-81
2023/06/11 01:51:06;;;;;;;;;4.00;3.00;;;;;;;;5046144;28;46311;-81
2023/06/11 01:53:32;;;;;;;;;3.00;3.00;;;;;;;;5054843;28;45406;-81
2023/06/11 01:55:58;;;;;;;;;6.33;1.00;;;;;;;;5054655;28;45530;-80
2023/06/11 01:58:23;;;;;;;;;3.50;3.00;;;;;;;;5035084;28;45411;-80
2023/06/11 02:00:48;;;;;;;;;3.00;3.00;;;;;;;;5034982;28;45405;-80
2023/06/11 02:03:16;;;;;;;;;3.00;2.00;;;;;;;;5052319;28;45362;-81
2023/06/11 02:05:43;;;;;;;;;3.00;2.75;;;;;;;;5055228;28;45334;-81
2023/06/11 02:08:08;;;;;;;;;5.50;2.00;;;;;;;;5044018;28;45346;-81
2023/06/11 02:10:33;;;;;;;;;2.00;2.00;;;;;;;;5034746;28;47119;-79
2023/06/11 02:12:58;;;;;;;;;7.00;4.00;;;;;;;;5034831;28;45470;-80
2023/06/11 02:15:23;;;;;;;;;3.33;2.67;;;;;;;;5038419;28;45436;-81
2023/06/11 02:17:49;;;;;;;;;2.67;2.67;;;;;;;;5047265;28;45368;-81
2023/06/11 02:20:15;;;;;;;;;3.00;1.75;;;;;;;;5038137;28;45463;-81
2023/06/11 02:22:40;;;;;;;;;4.00;2.50;;;;;;;;5037801;28;45784;-79
2023/06/11 02:25:05;;;;;;;;;3.00;3.00;;;;;;;;5038495;28;45374;-81
2023/06/11 02:27:31;;;;;;;;;2.25;2.00;;;;;;;;5030747;28;45688;-80
2023/06/11 02:29:56;;;;;;;;;3.67;3.00;;;;;;;;5058122;28;47047;-81
2023/06/11 02:32:21;;;;;;;;;2.00;2.00;;;;;;;;5046913;28;45712;-80
2023/06/11 02:34:47;;;;;;;;;2.75;2.00;;;;;;;;5038145;28;45381;-81
2023/06/11 02:37:12;;;;;;;;;2.33;2.00;;;;;;;;5041674;28;45381;-81
2023/06/11 02:39:37;;;;;;;;;2.00;2.00;;;;;;;;5037765;28;45868;-81
2023/06/11 02:42:02;;;;;;;;;3.33;2.67;;;;;;;;5037936;28;45487;-81
2023/06/11 02:44:27;;;;;;;;;3.75;2.00;;;;;;;;5030848;28;45437;-81
2023/06/11 02:46:53;;;;;;;;;4.00;2.00;;;;;;;;5040644;28;45507;-81
2023/06/11 02:49:18;;;;;;;;;3.00;3.00;;;;;;;;5037890;28;46152;-80
2023/06/11 02:51:43;;;;;;;;;2.00;2.00;;;;;;;;5042825;28;45326;-81
2023/06/11 02:54:08;;;;;;;;;3.00;3.00;;;;;;;;5058099;28;45463;-81
2023/06/11 02:56:33;;;;;;;;;2.25;2.00;;;;;;;;5054007;28;45459;-81
2023/06/11 02:58:59;;;;;;;;;0.00;0.00;;;;;;;;5037709;28;47272;-81
2023/06/11 03:01:24;;;;;;;;;3.00;3.00;;;;;;;;5037784;28;45443;-81
2023/06/11 03:03:49;;;;;;;;;8.33;2.00;;;;;;;;5037717;28;45349;-80
2023/06/11 03:06:14;;;;;;;;;6.00;3.00;;;;;;;;5037211;28;45325;-81
2023/06/11 03:08:39;;;;;;;;;3.67;2.00;;;;;;;;5037354;28;47226;-81
2023/06/11 03:11:05;;;;;;;;;4.00;3.00;;;;;;;;5019569;28;45683;-80
2023/06/11 03:13:30;;;;;;;;;3.33;2.00;;;;;;;;5037371;28;45407;-81
2023/06/11 03:15:55;;;;;;;;;2.00;2.00;;;;;;;;5037575;28;45804;-81
2023/06/11 03:18:20;;;;;;;;;2.67;2.67;;;;;;;;5037156;28;45409;-80
2023/06/11 03:20:46;;;;;;;;;5.75;3.50;;;;;;;;5036971;28;45367;-80
2023/06/11 03:23:11;;;;;;;;;5.00;3.67;;;;;;;;5037464;28;45461;-81
2023/06/11 03:25:36;;;;;;;;;2.00;2.00;;;;;;;;5036398;28;45341;-80
2023/06/11 03:28:02;;;;;;;;;3.00;3.00;;;;;;;;5037066;28;46581;-80
2023/06/11 03:30:27;;;;;;;;;2.75;2.75;;;;;;;;5036984;28;45772;-81
2023/06/11 03:32:52;;;;;;;;;3.67;3.00;;;;;;;;5037486;28;45388;-80
2023/06/11 03:35:18;;;;;;;;;5.33;4.00;;;;;;;;5054592;28;45430;-81
2023/06/11 03:37:43;;;;;;;;;6.75;4.00;;;;;;;;5056611;28;47219;-81
2023/06/11 03:40:08;;;;;;;;;3.00;3.00;;;;;;;;5040814;28;45290;-81
2023/06/11 03:42:34;;;;;;;;;6.50;3.00;;;;;;;;5037033;28;45336;-80
2023/06/11 03:44:59;;;;;;;;;5.00;4.00;;;;;;;;5036700;28;45379;-81
2023/06/11 03:47:24;;;;;;;;;5.33;5.00;;;;;;;;5044955;28;46897;-81
2023/06/11 03:49:50;;;;;;;;;5.33;5.33;;;;;;;;5049429;28;45459;-80
2023/06/11 03:52:16;;;;;;;;;5.00;4.25;;;;;;;;5057077;28;45318;-81
2023/06/11 03:54:41;;;;;;;;;5.25;4.50;;;;;;;;5037337;28;45356;-81
2023/06/11 03:57:06;;;;;;;;;3.67;3.67;;;;;;;;5044114;28;46315;-81
2023/06/11 03:59:31;;;;;;;;;10.00;5.33;;;;;;;;5036854;28;45365;-80
2023/06/11 04:01:56;;;;;;;;;5.00;5.00;;;;;;;;5041428;28;45374;-81
2023/06/11 04:04:22;;;;;;;;;5.67;5.00;;;;;;;;5056334;28;45693;-81
2023/06/11 04:06:47;;;;;;;;;5.00;3.33;;;;;;;;5046792;28;45979;-80
2023/06/11 04:09:12;;;;;;;;;6.33;6.00;;;;;;;;5036333;28;45352;-82
2023/06/11 04:11:37;;;;;;;;;7.33;4.33;;;;;;;;5018591;28;45389;-81
2023/06/11 04:14:02;;;;;;;;;7.00;5.00;;;;;;;;5036541;28;45428;-80
2023/06/11 04:16:28;;;;;;;;;11.00;6.33;;;;;;;;5040543;28;46471;-80
2023/06/11 04:18:53;;;;;;;;;8.33;6.00;;;;;;;;5036083;28;45355;-81
2023/06/11 04:21:18;;;;;;;;;11.00;6.00;;;;;;;;5037386;28;45396;-81
2023/06/11 04:23:44;;;;;;;;;9.00;6.00;;;;;;;;5038314;28;45535;-81
2023/06/11 04:26:10;;;;;;;;;6.75;6.00;;;;;;;;5055953;28;46272;-82
2023/06/11 04:28:36;;;;;;;;;6.00;6.00;;;;;;;;5056244;28;45484;-81
2023/06/11 04:31:01;;;;;;;;;7.75;7.00;;;;;;;;5040265;28;45607;-81
2023/06/11 04:33:32;;;;;;;;;7.00;5.00;;;;;;;;5036287;28;45499;-81
2023/06/11 04:36:00;;;;;;;;;8.50;7.25;;;;;;;;5044001;28;47081;-79
2023/06/11 04:38:28;;;;;;;;;8.50;6.25;;;;;;;;5048413;28;45446;-81
2023/06/11 04:40:53;;;;;;;;;5.25;3.75;;;;;;;;5049852;28;45374;-81
2023/06/11 04:43:22;;;;;;;;;5.00;4.00;;;;;;;;5056441;28;45400;-80
2023/06/11 04:45:49;;;;;;;;;7.50;6.50;;;;;;;;5055544;28;46352;-81
2023/06/11 04:48:21;;;;;;;;;4.00;4.00;;;;;;;;5055855;28;45315;-79
2023/06/11 04:50:48;;;;;;;;;5.25;3.50;;;;;;;;5043417;28;45322;-81
2023/06/11 04:53:22;;;;;;;;;5.75;5.75;;;;;;;;5036036;28;45409;-82
2023/06/11 04:55:54;;;;;;;;;7.00;5.25;;;;;;;;5048206;28;46129;-81
2023/06/11 04:58:21;;;;;;;;;7.75;3.75;;;;;;;;5055882;28;45707;-81
2023/06/11 05:00:47;;;;;;;;;7.25;6.00;;;;;;;;5051002;28;45390;-80
2023/06/11 05:03:12;;;;;;;;;5.50;4.00;;;;;;;;5055755;28;45688;-82
2023/06/11 05:05:38;;;;;;;;;6.50;5.75;;;;;;;;5046243;28;45612;-81
2023/06/11 05:08:03;;;;;;;;;5.00;5.00;;;;;;;;5035733;28;45372;-82
2023/06/11 05:10:28;;;;;;;;;7.00;5.75;;;;;;;;5039072;28;45377;-81
2023/06/11 05:12:53;;;;;;;;;7.00;7.00;;;;;;;;5052447;28;45341;-81
2023/06/11 05:15:18;;;;;;;;;7.67;6.00;;;;;;;;5039295;28;47054;-81
2023/06/11 05:17:45;;;;;;;;;12.33;6.67;;;;;;;;5035393;28;45215;-81
2023/06/11 05:20:11;;;;;;;;;7.50;6.25;;;;;;;;5036275;28;45314;-81
2023/06/11 05:22:36;;;;;;;;;5.75;4.00;;;;;;;;5054356;28;45422;-81
2023/06/11 05:25:01;;;;;;;;;8.00;5.00;;;;;;;;5035165;28;46377;-80
2023/06/11 05:27:29;;;;;;;;;5.75;4.00;;;;;;;;5045582;28;45358;-81
2023/06/11 05:29:54;;;;;;;;;7.75;5.00;;;;;;;;5055579;28;45394;-81
2023/06/11 05:32:19;;;;;;;;;5.75;5.00;;;;;;;;5036719;28;45647;-81
2023/06/11 05:34:45;;;;;;;;;6.67;5.67;;;;;;;;5035492;28;47181;-81
2023/06/11 05:37:10;;;;;;;;;7.67;6.67;;;;;;;;5035467;28;45521;-80
2023/06/11 05:39:35;;;;;;;;;7.25;5.00;;;;;;;;5035499;28;45326;-81
2023/06/11 05:42:00;;;;;;;;;5.67;5.67;;;;;;;;5050706;28;45348;-81
2023/06/11 05:44:26;;;;;;;;;9.00;6.00;;;;;;;;5055356;28;46133;-80
2023/06/11 05:46:51;;;;;;;;;7.00;5.33;;;;;;;;5053280;28;45534;-81
2023/06/11 05:49:16;;;;;;;;;5.00;5.00;;;;;;;;5057325;28;45432;-81
2023/06/11 05:51:41;;;;;;;;;8.33;6.33;;;;;;;;5059644;28;45520;-91
2023/06/11 05:54:09;;;;;;;;;6.33;5.33;;;;;;;;5060203;28;45789;-92
2023/06/11 05:56:34;;;;;;;;;8.00;5.25;;;;;;;;5059827;28;45277;-92
2023/06/11 05:58:59;;;;;;;;;5.67;5.33;;;;;;;;5059314;28;45238;-91
2023/06/11 06:01:25;;;;;;;;;6.75;6.00;;;;;;;;5040352;28;45680;-91
2023/06/11 06:03:50;;;;;;;;;4.33;4.00;;;;;;;;5039817;28;47234;-91
2023/06/11 06:06:15;;;;;;;;;8.00;5.33;;;;;;;;5032774;28;45791;-91
2023/06/11 06:08:40;;;;;;;;;9.00;6.00;;;;;;;;5025284;28;45528;-91
2023/06/11 06:11:06;;;;;;;;;7.00;6.33;;;;;;;;5039856;28;45278;-92
2023/06/11 06:13:31;;;;;;;;;10.75;7.75;;;;;;;;5036912;28;45379;-90
2023/06/11 06:15:56;;;;;;;;;12.33;7.00;;;;;;;;5045661;28;45298;-91
2023/06/11 06:18:22;;;;;;;;;10.75;7.25;;;;;;;;5040328;28;45413;-89
2023/06/11 06:20:48;;;;;;;;;13.25;6.25;;;;;;;;5058673;28;45552;-91
2023/06/11 06:23:13;;;;;;;;;10.00;8.00;;;;;;;;5036563;28;45479;-88
2023/06/11 06:25:38;;;;;;;;;8.67;6.33;;;;;;;;5038275;28;45530;-88
2023/06/11 06:28:04;;;;;;;;;9.50;7.50;;;;;;;;5038722;28;45409;-88
2023/06/11 06:30:30;;;;;;;;;8.00;6.50;;;;;;;;5037633;28;45436;-87
2023/06/11 06:32:56;;;;;;;;;6.25;6.00;;;;;;;;5038249;28;47180;-89
2023/06/11 06:35:21;;;;;;;;;9.00;7.00;;;;;;;;5034968;28;45486;-87
2023/06/11 06:37:53;;;;;;;;;7.67;6.67;;;;;;;;5038589;28;45292;-88
2023/06/11 06:40:18;;;;;;;;;8.75;6.75;;;;;;;;5045592;28;45452;-89
2023/06/11 06:42:44;;;;;;;;;7.75;6.75;;;;;;;;5020539;28;47301;-89
2023/06/11 06:45:09;;;;;;;;;9.25;6.00;;;;;;;;5039597;28;45408;-89
2023/06/11 06:47:35;;;;;;;;;10.00;6.25;;;;;;;;5056825;28;45534;-90
2023/06/11 06:50:00;;;;;;;;;6.75;5.75;;;;;;;;5038501;28;45659;-90
2023/06/11 06:52:25;;;;;;;;;6.25;6.00;;;;;;;;5053149;28;46280;-91
2023/06/11 06:54:51;;;;;;;;;9.00;6.75;;;;;;;;5022130;28;45295;-88
2023/06/11 06:57:17;;;;;;;;;11.25;8.50;;;;;;;;5052485;28;45501;-85
2023/06/11 06:59:43;;;;;;;;;10.75;8.25;;;;;;;;5052630;28;45614;-90
2023/06/11 07:02:09;;;;;;;;;11.50;8.50;;;;;;;;5020305;28;46413;-88
2023/06/11 07:04:34;;;;;;;;;11.00;7.67;;;;;;;;5051085;28;45468;-88
2023/06/11 07:06:59;;;;;;;;;12.75;6.25;;;;;;;;5055280;28;45543;-89
2023/06/11 07:09:25;;;;;;;;;10.00;7.25;;;;;;;;5051920;28;45405;-88
2023/06/11 07:11:52;;;;;;;;;10.50;8.75;;;;;;;;5046327;28;47237;-90
2023/06/11 07:14:17;;;;;;;;;14.50;9.25;;;;;;;;5038898;28;45884;-92
2023/06/11 07:16:43;;;;;;;;;10.67;9.67;;;;;;;;5051770;28;45566;-87
2023/06/11 07:19:08;;;;;;;;;12.33;8.00;;;;;;;;5037880;28;45964;-88
2023/06/11 07:21:35;;;;;;;;;11.00;9.00;;;;;;;;5037150;28;45555;-88
2023/06/11 07:24:04;;;;;;;;;11.00;9.00;;;;;;;;5037220;28;45322;-87
2023/06/11 07:26:30;;;;;;;;;13.00;10.00;;;;;;;;5041318;28;45414;-88
2023/06/11 07:28:55;;;;;;;;;10.00;8.00;;;;;;;;5037217;28;45281;-89
2023/06/11 07:31:20;;;;;;;;;9.67;7.00;;;;;;;;5033380;28;46589;-84
2023/06/11 07:33:46;;;;;;;;;11.67;9.00;;;;;;;;5049160;28;45357;-84
2023/06/11 07:36:11;;;;;;;;;7.50;6.75;;;;;;;;5037031;28;45346;-85
2023/06/11 07:38:36;;;;;;;;;11.67;8.67;;;;;;;;5036947;28;45258;-85
2023/06/11 07:41:01;;;;;;;;;9.33;8.00;;;;;;;;5038154;28;46313;-83
2023/06/11 07:43:27;;;;;;;;;11.00;9.67;;;;;;;;5037697;28;45455;-84
2023/06/11 07:45:52;;;;;;;;;9.00;7.00;;;;;;;;5036802;28;45463;-84
2023/06/11 07:48:17;;;;;;;;;7.00;7.00;;;;;;;;5040961;28;45580;-85
2023/06/11 07:50:43;;;;;;;;;13.00;8.00;;;;;;;;5032501;28;46412;-84
2023/06/11 07:53:08;;;;;;;;;6.25;5.75;;;;;;;;5041400;28;45309;-86
2023/06/11 07:55:34;;;;;;;;;8.75;7.50;;;;;;;;5057200;28;45293;-84
2023/06/11 07:57:59;;;;;;;;;10.75;7.00;;;;;;;;5037041;28;45468;-84
2023/06/11 08:00:24;;;;;;;;;8.67;8.67;;;;;;;;5036518;28;45642;-84
2023/06/11 08:02:49;;;;;;;;;12.33;8.00;;;;;;;;5035780;28;45397;-84
2023/06/11 08:05:17;;;;;;;;;11.67;8.67;;;;;;;;5034840;28;45584;-92
2023/06/11 08:07:46;;;;;;;;;9.00;7.50;;;;;;;;5017168;28;45348;-90
2023/06/11 08:10:11;;;;;;;;;11.25;7.50;;;;;;;;5026457;28;46337;-89
2023/06/11 08:12:36;;;;;;;;;9.00;6.25;;;;;;;;5036284;28;45280;-88
2023/06/11 08:15:02;;;;;;;;;9.33;8.33;;;;;;;;5037173;28;45322;-92
2023/06/11 08:17:27;;;;;;;;;11.50;9.25;;;;;;;;5019113;28;45338;-86
2023/06/11 08:19:52;;;;;;;;;10.67;8.67;;;;;;;;5052204;28;46517;-92
2023/06/11 08:22:17;;;;;;;;;9.33;7.67;;;;;;;;5030586;28;45695;-90
2023/06/11 08:24:42;;;;;;;;;8.33;7.67;;;;;;;;5048910;28;45452;-84
2023/06/11 08:27:08;;;;;;;;;9.33;6.00;;;;;;;;5056872;28;45447;-89
2023/06/11 08:29:33;;;;;;;;;11.75;6.75;;;;;;;;5038230;28;46541;-84
2023/06/11 08:31:58;;;;;;;;;7.00;7.00;;;;;;;;5035980;28;45553;-84
2023/06/11 08:34:23;;;;;;;;;10.00;7.67;;;;;;;;5035602;28;45458;-83
2023/06/11 08:36:52;;;;;;;;;7.00;5.67;;;;;;;;5041647;28;45515;-92
2023/06/11 08:39:19;;;;;;;;;7.50;6.00;;;;;;;;5050200;28;45749;-91
2023/06/11 08:41:45;;;;;;;;;6.75;6.75;;;;;;;;5035274;28;45266;-87
2023/06/11 08:44:15;;;;;;;;;7.33;5.33;;;;;;;;5019730;28;45411;-92
2023/06/11 08:46:43;;;;;;;;;6.75;5.75;;;;;;;;5038069;28;45526;-96
2023/06/11 08:49:14;;;;;;;;;11.75;8.00;;;;;;;;5036721;28;45436;-89
2023/06/11 08:51:39;;;;;;;;;8.00;7.00;;;;;;;;5036130;28;45444;-87
2023/06/11 08:54:06;;;;;;;;;12.00;6.25;;;;;;;;5035810;28;45445;-87
2023/06/11 08:56:32;;;;;;;;;8.75;7.75;;;;;;;;5036444;28;45389;-88
2023/06/11 08:58:58;;;;;;;;;9.25;6.25;;;;;;;;5035990;28;46453;-88
2023/06/11 09:01:24;;;;;;;;;8.50;6.00;;;;;;;;5036310;28;45474;-88
2023/06/11 09:03:49;;;;;;;;;10.50;7.00;;;;;;;;5018413;28;45541;-88
2023/06/11 09:06:15;;;;;;;;;11.25;7.00;;;;;;;;5036111;28;45495;-88
2023/06/11 09:08:40;;;;;;;;;9.00;7.00;;;;;;;;5035455;28;45472;-89
2023/06/11 09:11:05;;;;;;;;;8.00;6.33;;;;;;;;5036274;28;45306;-89
2023/06/11 09:13:31;;;;;;;;;9.00;6.75;;;;;;;;5035937;28;45391;-88
2023/06/11 09:15:56;;;;;;;;;12.33;6.67;;;;;;;;5036010;28;45514;-89
2023/06/11 09:18:23;;;;;;;;;10.33;7.33;;;;;;;;5035726;28;45449;-88
2023/06/11 09:20:51;;;;;;;;;10.50;8.50;;;;;;;;5035762;28;45429;-87
2023/06/11 09:23:23;;;;;;;;;10.75;8.50;;;;;;;;5034513;28;45294;-89
2023/06/11 09:25:49;;;;;;;;;14.50;7.75;;;;;;;;5035787;28;45338;-88
2023/06/11 09:28:14;;;;;;;;;9.50;7.00;;;;;;;;5017837;28;47439;-88
2023/06/11 09:30:39;;;;;;;;;11.33;8.67;;;;;;;;5018027;28;45962;-88
2023/06/11 09:33:14;;;;;;;;;10.67;9.00;;;;;;;;5035854;28;45521;-88
2023/06/11 09:35:42;;;;;;;;;9.75;9.50;;;;;;;;5035780;28;45382;-88
2023/06/11 09:38:13;;;;;;;;;12.75;9.50;;;;;;;;5017371;28;47141;-88
2023/06/11 09:40:39;;;;;;;;;12.25;9.75;;;;;;;;5035616;28;45865;-88
2023/06/11 09:43:05;;;;;;;;;11.75;10.00;;;;;;;;5035760;28;45388;-88
2023/06/11 09:45:31;;;;;;;;;15.75;11.25;;;;;;;;5017615;28;45384;-88
2023/06/11 09:47:57;;;;;;;;;11.00;10.50;;;;;;;;5035316;28;45372;-87
2023/06/11 09:50:22;;;;;;;;;15.75;9.25;;;;;;;;5035307;28;45399;-88
2023/06/11 09:52:48;;;;;;;;;10.75;8.75;;;;;;;;5017514;28;45323;-88
2023/06/11 09:55:13;;;;;;;;;16.00;11.75;;;;;;;;5035409;28;45444;-88
2023/06/11 09:57:40;;;;;;;;;10.75;8.00;;;;;;;;5034696;28;46461;-89
2023/06/11 10:00:09;;;;;;;;;13.50;9.25;;;;;;;;5035379;28;45384;-88
2023/06/11 10:02:35;;;;;;;;;12.25;11.00;;;;;;;;5035484;28;45388;-88
2023/06/11 10:05:00;;;;;;;;;14.00;11.00;;;;;;;;5035623;28;45362;-88
2023/06/11 10:07:27;;;;;;;;;14.75;12.50;;;;;;;;5017141;28;46878;-88
2023/06/11 10:09:53;;;;;;;;;15.75;11.25;;;;;;;;5035516;28;45492;-88
2023/06/11 10:12:19;;;;;;;;;13.75;11.75;;;;;;;;5035601;28;45286;-88
2023/06/11 10:14:52;;;;;;;;;13.25;9.75;;;;;;;;5035077;28;45263;-88
2023/06/11 10:17:17;;;;;;;;;14.50;11.50;;;;;;;;5034923;28;45479;-88
2023/06/11 10:19:47;;;;;;;;;12.33;11.00;;;;;;;;5035390;28;45506;-88
2023/06/11 10:22:12;;;;;;;;;16.50;12.50;;;;;;;;5017004;28;45681;-88
2023/06/11 10:24:37;;;;;;;;;12.50;10.75;;;;;;;;5017382;28;45350;-88
2023/06/11 10:27:13;;;;;;;;;10.75;9.00;;;;;;;;5034962;28;46531;-88
2023/06/11 10:29:40;;;;;;;;;13.75;11.00;;;;;;;;5034983;28;45854;-89
2023/06/11 10:32:19;;;;;;;;;15.50;13.00;;;;;;;;5035179;28;45421;-88
2023/06/11 10:34:45;;;;;;;;;16.50;11.75;;;;;;;;5036033;28;45373;-88
2023/06/11 10:37:11;;;;;;;;;17.75;14.25;;;;;;;;5037952;28;45298;-88
2023/06/11 10:39:48;;;;;;;;;16.75;14.50;;;;;;;;5038284;28;45374;-88
2023/06/11 10:42:21;;;;;;;;;16.00;13.50;;;;;;;;5038574;28;45376;-89
2023/06/11 10:44:46;;;;;;;;;17.00;12.00;;;;;;;;5038487;28;45274;-88
2023/06/11 10:47:12;;;;;;;;;17.75;12.25;;;;;;;;5037607;28;46080;-88
2023/06/11 10:49:37;;;;;;;;;15.33;13.00;;;;;;;;5038284;28;45400;-89
2023/06/11 10:52:03;;;;;;;;;13.00;11.00;;;;;;;;5037883;28;45376;-89
2023/06/11 10:54:34;;;;;;;;;12.00;11.00;;;;;;;;5038263;28;45364;-88
2023/06/11 10:57:00;;;;;;;;;12.50;9.50;;;;;;;;5037847;28;46569;-88
2023/06/11 10:59:26;;;;;;;;;16.50;12.75;;;;;;;;5037842;28;45530;-88
2023/06/11 11:01:52;;;;;;;;;13.33;7.67;;;;;;;;5038211;28;45361;-88
2023/06/11 11:04:17;;;;;;;;;17.25;12.00;;;;;;;;5038006;28;45330;-88
2023/06/11 11:06:43;;;;;;;;;14.00;12.00;;;;;;;;5037524;28;45320;-88
2023/06/11 11:09:08;;;;;;;;;14.75;12.00;;;;;;;;5037629;28;45415;-88
2023/06/11 11:11:34;;;;;;;;;19.25;15.25;;;;;;;;5038034;28;45407;-88
2023/06/11 11:13:59;;;;;;;;;16.25;10.50;;;;;;;;5019611;28;45357;-88
2023/06/11 11:16:25;;;;;;;;;9.75;8.50;;;;;;;;5037719;28;46476;-88
2023/06/11 11:18:50;;;;;;;;;16.75;12.50;;;;;;;;5019855;28;45352;-88
2023/06/11 11:21:16;;;;;;;;;13.00;11.00;;;;;;;;5037484;28;45406;-88
2023/06/11 11:23:42;;;;;;;;;10.50;9.25;;;;;;;;5019835;28;45369;-89
2023/06/11 11:26:07;;;;;;;;;15.50;11.00;;;;;;;;5037698;28;45465;-89
2023/06/11 11:28:33;;;;;;;;;10.67;9.67;;;;;;;;5037280;28;45433;-88
2023/06/11 11:30:58;;;;;;;;;14.50;10.75;;;;;;;;5037330;28;45356;-89
2023/06/11 11:33:23;;;;;;;;;12.75;10.00;;;;;;;;5037535;28;45451;-88
2023/06/11 11:35:50;;;;;;;;;15.67;10.67;;;;;;;;5019482;28;48040;-88
2023/06/11 11:38:15;;;;;;;;;9.75;8.75;;;;;;;;5037217;28;45843;-89
2023/06/11 11:40:40;;;;;;;;;17.33;13.33;;;;;;;;5037580;28;45650;-89
2023/06/11 11:43:05;;;;;;;;;15.33;11.00;;;;;;;;5037311;28;45441;-89
2023/06/11 11:45:32;;;;;;;;;13.00;11.25;;;;;;;;5018950;28;47212;-89
2023/06/11 11:47:57;;;;;;;;;10.25;9.00;;;;;;;;5036303;28;45417;-89
2023/06/11 11:50:25;;;;;;;;;12.67;9.67;;;;;;;;5037604;28;45316;-89
2023/06/11 11:53:04;;;;;;;;;15.75;9.25;;;;;;;;5037187;28;45409;-88
2023/06/11 11:55:30;;;;;;;;;12.00;10.75;;;;;;;;5037044;28;47159;-88
2023/06/11 11:58:02;;;;;;;;;13.50;10.75;;;;;;;;5037155;28;45694;-89
2023/06/11 12:00:28;;;;;;;;;12.50;10.50;;;;;;;;5037446;28;45294;-89
2023/06/11 12:02:55;;;;;;;;;13.67;9.00;;;;;;;;5037004;28;45321;-89
2023/06/11 12:05:20;;;;;;;;;10.75;9.50;;;;;;;;5037204;28;47102;-89
2023/06/11 12:07:52;;;;;;;;;13.33;12.00;;;;;;;;5037086;28;45376;-89
2023/06/11 12:10:17;;;;;;;;;9.50;9.00;;;;;;;;5036632;28;45349;-89
2023/06/11 12:12:42;;;;;;;;;13.33;9.00;;;;;;;;5019220;28;45366;-88
2023/06/11 12:15:08;;;;;;;;;12.00;9.00;;;;;;;;5052296;28;48220;-89
2023/06/11 12:17:33;;;;;;;;;16.00;10.25;;;;;;;;5036369;28;45313;-88
2023/06/11 12:19:58;;;;;;;;;15.33;8.67;;;;;;;;5037110;28;45532;-88
2023/06/11 12:22:24;;;;;;;;;11.67;8.67;;;;;;;;5036943;28;45289;-88
2023/06/11 12:24:50;;;;;;;;;9.25;7.00;;;;;;;;5019045;28;47105;-88
2023/06/11 12:27:15;;;;;;;;;13.50;9.00;;;;;;;;5036439;28;45703;-88
2023/06/11 12:29:40;;;;;;;;;14.00;10.00;;;;;;;;5036788;28;45281;-89
2023/06/11 12:32:11;;;;;;;;;12.00;10.50;;;;;;;;5036636;28;45487;-89
2023/06/11 12:34:37;;;;;;;;;12.50;8.50;;;;;;;;5036922;28;46160;-89
2023/06/11 12:37:02;;;;;;;;;13.00;9.00;;;;;;;;5037192;28;45411;-92
2023/06/11 12:39:27;;;;;;;;;19.00;12.00;;;;;;;;5024997;28;45530;-90
2023/06/11 12:41:52;;;;;;;;;14.33;9.67;;;;;;;;5036678;28;45286;-92
2023/06/11 12:44:17;;;;;;;;;14.33;10.00;;;;;;;;5017282;28;47254;-92
2023/06/11 12:46:43;;;;;;;;;12.33;11.33;;;;;;;;5033746;28;45517;-86
2023/06/11 12:49:08;;;;;;;;;9.75;9.50;;;;;;;;5035243;28;45287;-84
2023/06/11 12:51:36;;;;;;;;;14.00;10.00;;;;;;;;5035724;28;45206;-87
2023/06/11 12:54:01;;;;;;;;;15.75;12.00;;;;;;;;5035665;28;45739;-85
2023/06/11 12:56:27;;;;;;;;;21.00;15.00;;;;;;;;5034893;28;45480;-84
2023/06/11 12:58:52;;;;;;;;;22.00;14.33;;;;;;;;5034052;28;45338;-85
2023/06/11 13:01:19;;;;;;;;;24.33;16.00;;;;;;;;5041681;28;45313;-89
2023/06/11 13:03:44;;;;;;;;;20.50;17.50;;;;;;;;5019002;28;48046;-92
2023/06/11 13:06:10;;;;;;;;;19.33;18.00;;;;;;;;5036455;28;45451;-95
2023/06/11 13:08:35;;;;;;;;;20.25;15.50;;;;;;;;5019766;28;45482;-95
2023/06/11 13:11:00;;;;;;;;;25.67;18.00;;;;;;;;5042385;28;45459;-94
2023/06/11 13:13:26;;;;;;;;;24.00;20.00;;;;;;;;5030694;28;46057;-86
2023/06/11 13:15:58;;;;;;;;;19.00;17.33;;;;;;;;5031228;28;45450;-88
2023/06/11 13:18:23;;;;;;;;;27.00;18.00;;;;;;;;5036776;28;45535;-91
2023/06/11 13:21:02;;;;;;;;;30.33;22.67;;;;;;;;5036386;28;45442;-93
2023/06/11 13:23:41;;;;;;;;;;;;;;;;;;;;;
2023/06/11 13:26:06;;;;;;;;;24.75;21.25;;;;;;;;5034502;28;73860;-95
2023/06/11 13:28:31;;;;;;;;;26.75;20.00;;;;;;;;5019006;28;45622;-94
2023/06/11 13:30:59;;;;;;;;;30.67;23.33;;;;;;;;5053889;28;45619;-89
2023/06/11 13:33:32;;;;;;;;;33.50;26.00;;;;;;;;5035893;28;46114;-93
2023/06/11 13:35:58;;;;;;;;;31.00;23.00;;;;;;;;5037395;28;45440;-89
2023/06/11 13:38:24;;;;;;;;;20.00;17.00;;;;;;;;5017015;28;45329;-90
2023/06/11 13:40:49;;;;;;;;;14.50;11.00;;;;;;;;5026116;28;45713;-84
2023/06/11 13:43:14;;;;;;;;;17.50;12.00;;;;;;;;5027015;28;46091;-86
2023/06/11 13:45:44;;;;;;;;;33.00;22.00;;;;;;;;5033120;28;45503;-84
2023/06/11 13:48:16;;;;;;;;;23.75;15.25;;;;;;;;5034121;28;45503;-83
2023/06/11 13:50:44;;;;;;;;;11.75;10.25;;;;;;;;5027997;28;45770;-87
2023/06/11 13:53:09;;;;;;;;;14.75;12.25;;;;;;;;5034094;28;46129;-86
2023/06/11 13:55:34;;;;;;;;;19.00;17.50;;;;;;;;5033109;28;45306;-85
2023/06/11 13:58:00;;;;;;;;;20.67;16.00;;;;;;;;5033991;28;45266;-84
2023/06/11 14:00:26;;;;;;;;;22.50;17.50;;;;;;;;5032856;28;45424;-85
2023/06/11 14:02:51;;;;;;;;;22.50;17.50;;;;;;;;5031118;28;46069;-86
2023/06/11 14:05:16;;;;;;;;;24.75;19.75;;;;;;;;5033851;28;45524;-87
2023/06/11 14:07:42;;;;;;;;;22.25;21.00;;;;;;;;5024852;28;45275;-84
2023/06/11 14:10:07;;;;;;;;;21.25;19.00;;;;;;;;5036191;28;45990;-85
2023/06/11 14:12:32;;;;;;;;;27.50;21.75;;;;;;;;5035945;28;46917;-86
2023/06/11 14:14:57;;;;;;;;;32.67;21.67;;;;;;;;5037491;28;45329;-87
2023/06/11 14:17:33;;;;;;;;;;;;;;;;;;;;;
2023/06/11 14:20:00;;;;;;;;;41.75;31.25;;;;;;;;5050034;28;71207;-89
2023/06/11 14:22:26;;;;;;;;;41.50;31.75;;;;;;;;5037820;28;45808;-87
2023/06/11 14:24:51;;;;;;;;;42.33;32.00;;;;;;;;5037486;28;45593;-83
2023/06/11 14:27:16;;;;;;;;;42.33;34.00;;;;;;;;5035532;28;45499;-82
2023/06/11 14:29:41;;;;;;;;;50.67;39.00;;;;;;;;5037028;28;45540;-84